Time;durP1;ratioP1;P1;durP2;ratioP2;P2;SDS_P1;SDS_P2;PMS_P1;PMS_P2;Temp;Humidity;BMP_temperature;BMP_pressure;BME280_temperature;BME280_humidity;BME280_pressure;Samples;Min_cycle;Max_cycle;Signal;HPM_P1;HPM_P2
2023/01/06 00:01:54;;;;;;;26.02;8.95;;;;;;;8.33;100.00;101018.16;5213928;28;20060;-73
2023/01/06 00:04:25;;;;;;;19.83;8.85;;;;;;;8.09;100.00;101024.69;5198963;28;20016;-73
2023/01/06 00:06:55;;;;;;;21.55;8.43;;;;;;;8.31;100.00;101015.63;5214675;28;20052;-73
2023/01/06 00:09:25;;;;;;;23.60;8.55;;;;;;;8.23;100.00;101020.09;5212948;28;20024;-74
2023/01/06 00:11:55;;;;;;;32.90;9.88;;;;;;;8.31;100.00;101022.56;5220195;28;20021;-73
2023/01/06 00:14:26;;;;;;;21.58;8.35;;;;;;;8.33;100.00;101002.56;5215754;28;20414;-73
2023/01/06 00:16:56;;;;;;;26.27;8.73;;;;;;;8.24;100.00;101000.97;5212445;28;20117;-72
2023/01/06 00:19:26;;;;;;;25.42;9.48;;;;;;;8.25;100.00;100994.88;5214532;28;20060;-73
2023/01/06 00:21:57;;;;;;;25.30;9.27;;;;;;;8.22;100.00;101000.16;5215723;28;20415;-72
2023/01/06 00:24:27;;;;;;;25.95;9.27;;;;;;;8.26;100.00;100999.25;5212333;28;20033;-73
2023/01/06 00:26:58;;;;;;;26.23;8.82;;;;;;;8.32;100.00;100993.91;5211607;28;20095;-73
2023/01/06 00:29:29;;;;;;;24.92;9.27;;;;;;;8.38;100.00;100993.75;5205877;28;20076;-73
2023/01/06 00:32:00;;;;;;;22.35;9.50;;;;;;;8.48;100.00;100984.03;5206257;28;20112;-72
2023/01/06 00:34:30;;;;;;;19.73;8.35;;;;;;;8.39;100.00;100977.25;5214654;28;20111;-73
2023/01/06 00:37:00;;;;;;;28.67;9.38;;;;;;;8.42;100.00;100979.78;5222535;28;20089;-72
2023/01/06 00:39:31;;;;;;;28.08;9.05;;;;;;;8.19;100.00;100981.16;5211871;28;20494;-72
2023/01/06 00:42:04;;;;;;;26.95;9.05;;;;;;;8.30;100.00;100971.38;5219927;28;20031;-72
2023/01/06 00:44:37;;;;;;;24.88;9.10;;;;;;;8.39;100.00;100977.25;5213283;28;20037;-73
2023/01/06 00:47:09;;;;;;;25.83;9.38;;;;;;;8.35;100.00;100969.56;5222721;28;20070;-73
2023/01/06 00:49:40;;;;;;;24.20;8.75;;;;;;;8.31;100.00;100960.94;5211309;28;20076;-72
2023/01/06 00:52:10;;;;;;;27.10;9.02;;;;;;;8.36;100.00;100959.09;5210610;28;20029;-73
2023/01/06 00:54:41;;;;;;;20.73;8.70;;;;;;;8.39;100.00;100959.03;5213843;28;20040;-74
2023/01/06 00:57:12;;;;;;;27.20;9.40;;;;;;;8.47;100.00;100962.34;5217658;28;20025;-72
2023/01/06 00:59:42;;;;;;;20.92;8.40;;;;;;;8.47;100.00;100956.25;5209458;28;20032;-73
2023/01/06 01:02:12;;;;;;;21.15;8.45;;;;;;;8.44;100.00;100961.53;5213420;28;20044;-72
2023/01/06 01:04:43;;;;;;;23.23;8.95;;;;;;;8.45;100.00;100956.31;5217165;28;20426;-73
2023/01/06 01:07:13;;;;;;;20.60;8.48;;;;;;;8.41;100.00;100957.25;5216941;28;20025;-73
2023/01/06 01:09:43;;;;;;;21.13;8.90;;;;;;;8.40;100.00;100962.50;5213365;28;20025;-73
2023/01/06 01:12:14;;;;;;;29.00;8.50;;;;;;;8.40;100.00;100960.72;5197369;28;20025;-73
2023/01/06 01:14:49;;;;;;;26.38;10.00;;;;;;;8.39;100.00;100956.41;5211763;28;20020;-73
2023/01/06 01:17:29;;;;;;;24.98;9.73;;;;;;;8.38;100.00;100967.72;5209106;28;20170;-72
2023/01/06 01:19:59;;;;;;;27.17;9.50;;;;;;;8.34;100.00;100960.88;5214388;28;20025;-72
2023/01/06 01:22:30;;;;;;;26.70;9.40;;;;;;;8.35;100.00;100957.38;5203763;28;20103;-71
2023/01/06 01:25:00;;;;;;;27.48;9.75;;;;;;;8.35;100.00;100957.38;5208054;28;20029;-72
2023/01/06 01:27:31;;;;;;;23.92;9.60;;;;;;;8.31;100.00;100960.94;5218973;28;20513;-74
2023/01/06 01:30:01;;;;;;;27.50;9.65;;;;;;;8.34;100.00;100960.00;5214823;28;20022;-72
2023/01/06 01:32:31;;;;;;;30.00;9.88;;;;;;;8.33;100.00;100961.75;5219018;28;20476;-72
2023/01/06 01:35:02;;;;;;;25.20;9.85;;;;;;;8.25;100.00;100957.59;5208419;28;20029;-72
2023/01/06 01:37:32;;;;;;;25.67;9.73;;;;;;;8.24;100.00;100959.31;5189484;28;20037;-73
2023/01/06 01:40:03;;;;;;;29.73;10.75;;;;;;;8.32;100.00;100960.03;5211816;28;20116;-72
2023/01/06 01:42:33;;;;;;;25.60;10.15;;;;;;;8.25;100.00;100955.00;5221497;28;20328;-72
2023/01/06 01:45:15;;;;;;;22.10;10.20;;;;;;;8.32;100.00;100960.03;5186155;28;20100;-73
2023/01/06 01:47:54;;;;;;;26.15;10.48;;;;;;;8.30;100.00;100947.94;5206868;28;20061;-73
2023/01/06 01:50:57;;;;;;;25.30;10.07;;;;;;;8.35;100.00;100953.94;5218920;28;20025;-73
2023/01/06 01:53:40;;;;;;;23.27;9.57;;;;;;;8.27;100.00;100951.47;5170720;28;20431;-73
2023/01/06 01:56:15;;;;;;;29.25;10.52;;;;;;;8.27;100.00;100948.88;5216918;28;20084;-73
2023/01/06 01:58:49;;;;;;;;;;;;;;;8.31;100.00;100949.66;5213100;28;20510;-72
2023/01/06 02:01:20;;;;;;;26.42;9.73;;;;;;;8.35;100.00;100949.56;5213349;28;19978;-73
2023/01/06 02:03:51;;;;;;;25.95;10.30;;;;;;;8.34;100.00;100940.03;5209564;28;20391;-72
2023/01/06 02:06:24;;;;;;;25.30;9.70;;;;;;;8.32;100.00;100947.03;5195085;28;20025;-72
2023/01/06 02:09:02;;;;;;;23.65;10.15;;;;;;;8.34;100.00;100933.97;5215431;28;20029;-72
2023/01/06 02:11:34;;;;;;;26.20;9.32;;;;;;;8.35;100.00;100940.91;5207587;28;20443;-73
2023/01/06 02:14:13;;;;;;;27.02;8.45;;;;;;;8.35;100.00;100943.50;5215158;28;20394;-72
2023/01/06 02:17:11;;;;;;;24.75;9.40;;;;;;;8.34;100.00;100933.97;5215995;28;20029;-73
2023/01/06 02:20:15;;;;;;;23.95;9.13;;;;;;;8.36;100.00;100935.66;5209562;28;20021;-73
2023/01/06 02:23:19;;;;;;;32.88;9.73;;;;;;;8.36;100.00;100933.06;5204392;28;20044;-74
2023/01/06 02:26:20;;;;;;;30.52;9.98;;;;;;;8.38;100.00;100928.66;5234425;22;20047;-79
2023/01/06 02:28:56;;;;;;;23.90;9.40;;;;;;;8.34;100.00;100927.03;5221064;28;20024;-80
2023/01/06 02:31:41;;;;;;;30.17;10.18;;;;;;;8.37;100.00;100926.94;5229397;28;20079;-79
2023/01/06 02:34:11;;;;;;;27.63;9.95;;;;;;;8.32;100.00;100922.72;5236888;28;20028;-80
2023/01/06 02:37:04;;;;;;;23.33;9.03;;;;;;;8.34;100.00;100913.13;5236173;28;20074;-79
2023/01/06 02:40:04;;;;;;;23.27;9.88;;;;;;;8.34;100.00;100914.00;5231727;28;20433;-79
2023/01/06 02:42:52;;;;;;;26.75;9.57;;;;;;;8.31;100.00;100914.06;5193496;28;20044;-80
2023/01/06 02:45:33;;;;;;;21.60;9.75;;;;;;;8.32;100.00;100907.97;5213064;28;20021;-79
2023/01/06 02:48:37;;;;;;;25.60;10.52;;;;;;;8.33;100.00;100901.88;5239522;28;20036;-80
2023/01/06 02:51:23;;;;;;;27.73;10.38;;;;;;;8.35;100.00;100900.09;5229952;28;20540;-79
2023/01/06 02:54:07;;;;;;;25.00;9.90;;;;;;;8.32;100.00;100894.94;5228768;28;20033;-79
2023/01/06 02:56:45;;;;;;;24.88;10.32;;;;;;;8.35;100.00;100888.84;5237207;28;20059;-80
2023/01/06 02:59:24;;;;;;;18.95;10.02;;;;;;;8.33;100.00;100883.66;5223895;28;20029;-80
2023/01/06 03:01:57;;;;;;;22.92;9.70;;;;;;;8.30;100.00;100869.81;5234255;28;20024;-79
2023/01/06 03:04:34;;;;;;;27.38;10.45;;;;;;;8.27;100.00;100865.56;5212401;28;20028;-80
2023/01/06 03:07:05;;;;;;;22.00;9.95;;;;;;;8.28;100.00;100863.78;5233169;28;20029;-79
2023/01/06 03:09:37;;;;;;;26.80;10.35;;;;;;;8.12;100.00;100868.44;5234178;28;20496;-79
2023/01/06 03:12:18;;;;;;;25.45;10.52;;;;;;;8.18;100.00;100865.75;5233761;28;20082;-79
2023/01/06 03:14:52;;;;;;;26.05;10.73;;;;;;;8.22;100.00;100872.59;5225179;28;20036;-77
2023/01/06 03:17:24;;;;;;;21.05;10.13;;;;;;;8.25;100.00;100861.25;5220454;28;20103;-79
2023/01/06 03:19:54;;;;;;;21.50;9.80;;;;;;;8.25;100.00;100856.91;5226093;28;20475;-78
2023/01/06 03:22:26;;;;;;;20.67;9.55;;;;;;;8.25;100.00;100854.28;5224157;28;20075;-78
2023/01/06 03:24:56;;;;;;;17.98;8.73;;;;;;;8.25;100.00;100862.09;5230950;28;20040;-78
2023/01/06 03:27:27;;;;;;;21.17;8.90;;;;;;;8.18;100.00;100854.50;5233247;28;20021;-78
2023/01/06 03:29:57;;;;;;;18.60;8.93;;;;;;;8.24;100.00;100855.19;5227275;28;20363;-78
2023/01/06 03:32:43;;;;;;;21.17;8.65;;;;;;;8.34;100.00;100855.84;5229410;28;20025;-77
2023/01/06 03:36:04;;;;;;;19.80;8.48;;;;;;;8.28;100.00;100846.44;5214848;28;20500;-76
2023/01/06 03:38:48;;;;;;;18.20;8.45;;;;;;;8.34;100.00;100848.91;5165522;28;20397;-77
2023/01/06 03:43:10;;;;;;;16.95;8.23;;;;;;;8.32;100.00;100848.09;5225741;28;20025;-77
2023/01/06 03:44:45;;;;;;;20.63;7.95;;;;;;;8.35;100.00;100841.97;5232178;28;20039;-76
2023/01/06 03:47:27;;;;;;;15.15;7.90;;;;;;;8.35;100.00;100835.00;5206169;28;20032;-77
2023/01/06 03:50:11;;;;;;;16.23;7.38;;;;;;;8.28;100.00;100829.94;5229584;28;20028;-77
2023/01/06 03:52:47;;;;;;;16.00;7.05;;;;;;;8.43;100.00;100829.59;5224771;28;20031;-77
2023/01/06 03:55:22;;;;;;;14.70;7.15;;;;;;;8.47;100.00;100826.91;5223835;28;20021;-77
2023/01/06 03:57:57;;;;;;;16.38;6.35;;;;;;;8.47;100.00;100836.44;5213044;28;20610;-77
2023/01/06 04:00:31;;;;;;;18.70;6.20;;;;;;;8.53;100.00;100825.91;5215211;28;20560;-78
2023/01/06 04:03:10;;;;;;;14.77;5.90;;;;;;;8.40;100.00;100827.06;5229239;28;20181;-77
2023/01/06 04:05:40;;;;;;;10.40;4.93;;;;;;;8.44;100.00;100826.97;5210082;28;20029;-77
2023/01/06 04:08:10;;;;;;;14.75;4.90;;;;;;;8.43;100.00;100825.28;5233520;28;20025;-77
2023/01/06 04:10:41;;;;;;;16.95;5.32;;;;;;;8.54;100.00;100825.03;5211132;28;20020;-77
2023/01/06 04:13:11;;;;;;;12.73;4.93;;;;;;;8.45;100.00;100820.88;5225209;28;20040;-76
2023/01/06 04:15:41;;;;;;;12.45;4.43;;;;;;;8.60;100.00;100819.66;5226699;28;20111;-77
2023/01/06 04:18:12;;;;;;;9.98;4.05;;;;;;;8.60;100.00;100820.53;5232072;28;20492;-78
2023/01/06 04:20:42;;;;;;;12.05;4.20;;;;;;;8.70;100.00;100819.41;5224669;28;20079;-78
2023/01/06 04:23:13;;;;;;;9.40;3.55;;;;;;;8.72;100.00;100819.38;5223936;28;20025;-78
2023/01/06 04:25:43;;;;;;;9.00;3.30;;;;;;;8.73;100.00;100819.31;5225524;28;20435;-77
2023/01/06 04:28:13;;;;;;;6.47;2.90;;;;;;;8.81;100.00;100801.75;5213094;28;20077;-77
2023/01/06 04:30:43;;;;;;;9.27;2.80;;;;;;;8.78;100.00;100807.06;5221280;28;20036;-78
2023/01/06 04:33:14;;;;;;;9.98;2.60;;;;;;;8.84;100.00;100795.59;5195499;28;20563;-78
2023/01/06 04:35:44;;;;;;;7.65;2.70;;;;;;;8.92;100.00;100793.66;5232664;28;20032;-78
2023/01/06 04:38:14;;;;;;;7.78;2.53;;;;;;;8.79;100.00;100793.13;5227891;28;20504;-77
2023/01/06 04:40:45;;;;;;;10.45;2.75;;;;;;;8.91;100.00;100790.19;5232797;28;20036;-78
2023/01/06 04:43:16;;;;;;;7.25;2.38;;;;;;;8.91;100.00;100782.38;5232331;28;20060;-78
2023/01/06 04:45:47;;;;;;;8.35;3.25;;;;;;;8.92;100.00;100784.09;5228115;28;20087;-78
2023/01/06 04:48:17;;;;;;;9.93;2.80;;;;;;;8.93;100.00;100780.59;5226807;28;20481;-78
2023/01/06 04:50:48;;;;;;;6.30;1.92;;;;;;;9.00;100.00;100779.53;5209283;28;20035;-76
2023/01/06 04:53:18;;;;;;;3.42;1.83;;;;;;;8.96;100.00;100770.09;5230034;28;20024;-78
2023/01/06 04:55:48;;;;;;;4.53;1.60;;;;;;;9.04;100.00;100768.13;5232259;28;20116;-77
2023/01/06 04:58:19;;;;;;;3.35;1.50;;;;;;;9.12;100.00;100770.53;5231015;28;20025;-78
2023/01/06 05:00:49;;;;;;;4.53;1.33;;;;;;;9.03;100.00;100766.44;5230760;28;20039;-78
2023/01/06 05:03:19;;;;;;;4.03;1.20;;;;;;;9.18;100.00;100763.41;5218213;28;20025;-77
2023/01/06 05:05:49;;;;;;;3.85;1.35;;;;;;;9.11;100.00;100767.09;5235123;28;20116;-78
2023/01/06 05:08:20;;;;;;;2.38;1.00;;;;;;;9.19;100.00;100763.38;5224395;28;20029;-78
2023/01/06 05:10:58;;;;;;;4.50;1.30;;;;;;;9.24;100.00;100764.13;5230866;28;20078;-76
2023/01/06 05:13:30;;;;;;;5.03;1.10;;;;;;;9.18;100.00;100756.44;5233959;28;20032;-77
2023/01/06 05:16:05;;;;;;;4.32;1.00;;;;;;;9.16;100.00;100754.78;5215449;28;20489;-78
2023/01/06 05:18:36;;;;;;;2.90;1.15;;;;;;;9.19;100.00;100757.31;5213877;28;20464;-76
2023/01/06 05:21:06;;;;;;;3.15;1.20;;;;;;;9.20;100.00;100756.41;5227749;28;20036;-78
2023/01/06 05:23:37;;;;;;;6.97;1.25;;;;;;;9.18;100.00;100747.78;5231419;28;20013;-78
2023/01/06 05:26:14;;;;;;;3.35;1.30;;;;;;;9.26;100.00;100749.28;5232854;28;20031;-77
2023/01/06 05:28:44;;;;;;;5.00;1.13;;;;;;;9.24;100.00;100758.03;5227104;28;20108;-78
2023/01/06 05:31:15;;;;;;;3.35;1.00;;;;;;;9.37;100.00;100746.38;5231403;28;20545;-78
2023/01/06 05:33:45;;;;;;;3.28;1.10;;;;;;;9.30;100.00;100750.06;5235098;28;20032;-77
2023/01/06 05:36:17;;;;;;;3.70;1.08;;;;;;;9.30;100.00;100750.06;5226385;28;20494;-78
2023/01/06 05:38:52;;;;;;;2.90;1.05;;;;;;;9.29;100.00;100749.19;5229871;28;20440;-77
2023/01/06 05:41:22;;;;;;;3.22;1.10;;;;;;;9.33;100.00;100747.34;5232070;28;20025;-77
2023/01/06 05:43:52;;;;;;;5.70;1.35;;;;;;;9.31;100.00;100751.75;5233767;28;20500;-77
2023/01/06 05:46:22;;;;;;;5.38;1.20;;;;;;;9.37;100.00;100747.25;5232481;28;20029;-76
2023/01/06 05:48:53;;;;;;;5.60;0.93;;;;;;;9.29;100.00;100743.97;5213390;28;20072;-78
2023/01/06 05:51:23;;;;;;;3.20;1.15;;;;;;;9.24;100.00;100737.16;5225115;28;20479;-78
2023/01/06 05:53:53;;;;;;;2.38;1.20;;;;;;;9.24;100.00;100743.25;5209680;28;20036;-77
2023/01/06 05:56:24;;;;;;;4.78;1.00;;;;;;;9.29;100.00;100740.53;5230675;28;20531;-77
2023/01/06 05:58:54;;;;;;;4.70;1.10;;;;;;;9.26;100.00;100738.84;5227607;28;20037;-78
2023/01/06 06:01:28;;;;;;;3.85;1.02;;;;;;;9.33;100.00;100729.09;5217245;28;20028;-78
2023/01/06 06:03:59;;;;;;;6.50;1.20;;;;;;;9.34;100.00;100730.81;5226261;28;21342;-77
2023/01/06 06:06:29;;;;;;;4.28;0.90;;;;;;;9.38;100.00;100728.06;5216668;28;20025;-78
2023/01/06 06:09:00;;;;;;;4.43;1.08;;;;;;;9.33;100.00;100724.72;5224614;28;20040;-78
2023/01/06 06:11:30;;;;;;;6.68;1.48;;;;;;;9.46;100.00;100725.25;5232647;28;20033;-77
2023/01/06 06:14:00;;;;;;;7.05;0.98;;;;;;;9.37;100.00;100728.09;5231314;28;20210;-77
2023/01/06 06:16:31;;;;;;;2.35;0.90;;;;;;;9.34;100.00;100730.81;5231299;28;20089;-77
2023/01/06 06:19:01;;;;;;;4.32;1.10;;;;;;;9.36;100.00;100726.41;5229061;28;20058;-77
2023/01/06 06:21:31;;;;;;;4.05;1.10;;;;;;;9.35;100.00;100716.88;5231625;28;20176;-77
2023/01/06 06:24:02;;;;;;;5.30;1.10;;;;;;;9.37;100.00;100725.50;5227461;28;20106;-78
2023/01/06 06:26:32;;;;;;;4.43;1.10;;;;;;;9.45;100.00;100715.72;5229697;28;20194;-78
2023/01/06 06:29:05;;;;;;;3.28;1.05;;;;;;;9.48;100.00;100726.06;5232755;28;20829;-78
2023/01/06 06:31:35;;;;;;;3.50;0.88;;;;;;;9.42;100.00;100721.00;5224290;28;20032;-78
2023/01/06 06:34:06;;;;;;;5.03;1.20;;;;;;;9.37;100.00;100725.50;5211812;28;20055;-78
2023/01/06 06:36:36;;;;;;;3.42;1.20;;;;;;;9.47;100.00;100721.75;5209732;28;20056;-78
2023/01/06 06:39:06;;;;;;;4.35;1.02;;;;;;;9.49;100.00;100727.78;5230297;28;20406;-78
2023/01/06 06:41:37;;;;;;;6.53;1.13;;;;;;;9.42;100.00;100719.25;5237733;28;20036;-78
2023/01/06 06:44:08;;;;;;;4.18;1.30;;;;;;;9.34;100.00;100725.59;5227223;28;20623;-78
2023/01/06 06:46:38;;;;;;;2.47;1.17;;;;;;;9.43;100.00;100704.44;5224645;28;20027;-78
2023/01/06 06:49:08;;;;;;;4.97;0.93;;;;;;;9.35;100.00;100703.84;5230844;28;20571;-78
2023/01/06 06:51:39;;;;;;;3.05;1.00;;;;;;;9.26;100.00;100707.56;5224847;28;20029;-77
2023/01/06 06:54:09;;;;;;;2.95;0.82;;;;;;;9.35;100.00;100709.03;5208654;28;20500;-77
2023/01/06 06:56:39;;;;;;;2.72;1.00;;;;;;;9.36;100.00;100708.16;5229240;28;20029;-77
2023/01/06 06:59:09;;;;;;;3.45;1.10;;;;;;;9.42;100.00;100702.75;5226060;28;20020;-77
2023/01/06 07:01:40;;;;;;;4.38;0.80;;;;;;;9.52;100.00;100704.19;5220606;28;20099;-77
2023/01/06 07:04:10;;;;;;;3.50;0.90;;;;;;;9.54;100.00;100702.41;5229337;28;20242;-77
2023/01/06 07:06:40;;;;;;;4.40;1.02;;;;;;;9.60;100.00;100691.75;5229794;28;20036;-77
2023/01/06 07:09:11;;;;;;;2.15;0.75;;;;;;;9.64;100.00;100693.41;5212643;28;20048;-77
2023/01/06 07:11:41;;;;;;;3.03;0.70;;;;;;;9.52;100.00;100691.16;5228548;28;20455;-76
2023/01/06 07:14:11;;;;;;;4.68;0.90;;;;;;;9.60;100.00;100689.16;5230190;28;20017;-77
2023/01/06 07:16:41;;;;;;;4.20;0.75;;;;;;;9.51;100.00;100692.06;5232152;28;20068;-77
2023/01/06 07:19:12;;;;;;;1.92;0.70;;;;;;;9.58;100.00;100701.41;5229580;28;20363;-77
2023/01/06 07:21:42;;;;;;;2.17;0.73;;;;;;;9.65;100.00;100706.38;5225200;28;20037;-77
2023/01/06 07:24:12;;;;;;;3.70;1.60;;;;;;;9.68;100.00;100705.47;5228824;28;20039;-78
2023/01/06 07:26:42;;;;;;;2.70;1.30;;;;;;;9.64;100.00;100694.25;5228984;28;20460;-78
2023/01/06 07:29:13;;;;;;;6.70;1.00;;;;;;;9.63;100.00;100691.69;5227224;28;20056;-77
2023/01/06 07:31:43;;;;;;;8.65;1.30;;;;;;;9.67;100.00;100682.88;5233545;28;20027;-77
2023/01/06 07:34:13;;;;;;;4.88;1.00;;;;;;;9.64;100.00;100682.97;5234215;28;20039;-78
2023/01/06 07:36:44;;;;;;;5.03;1.00;;;;;;;9.63;100.00;100689.09;5224116;28;20440;-78
2023/01/06 07:39:14;;;;;;;3.00;1.00;;;;;;;9.67;100.00;100685.47;5216213;28;20036;-77
2023/01/06 07:41:44;;;;;;;4.70;1.08;;;;;;;9.63;100.00;100691.69;5230590;28;20112;-78
2023/01/06 07:44:14;;;;;;;3.80;1.40;;;;;;;9.71;100.00;100676.66;5231605;28;20037;-78
2023/01/06 07:46:45;;;;;;;4.53;1.30;;;;;;;9.69;100.00;100681.06;5232203;28;20040;-78
2023/01/06 07:49:15;;;;;;;4.60;1.40;;;;;;;9.69;100.00;100674.06;5234676;28;20056;-79
2023/01/06 07:51:45;;;;;;;6.88;1.70;;;;;;;9.68;100.00;100668.91;5224000;28;20065;-79
2023/01/06 07:54:16;;;;;;;5.53;1.60;;;;;;;9.75;100.00;100675.66;5207852;28;20037;-78
2023/01/06 07:56:46;;;;;;;4.35;1.65;;;;;;;9.71;100.00;100674.03;5224996;28;20033;-78
2023/01/06 07:59:16;;;;;;;5.88;1.65;;;;;;;9.62;100.00;100669.13;5227684;28;20398;-79
2023/01/06 08:01:46;;;;;;;5.50;1.60;;;;;;;9.66;100.00;100671.56;5231380;28;20029;-79
2023/01/06 08:04:17;;;;;;;4.82;1.60;;;;;;;9.79;100.00;100661.63;5237084;28;20474;-78
2023/01/06 08:06:47;;;;;;;4.38;1.92;;;;;;;9.86;100.00;100663.97;5231132;28;20024;-77
2023/01/06 08:09:17;;;;;;;5.70;2.35;;;;;;;9.78;100.00;100660.75;5213766;28;20349;-78
2023/01/06 08:11:48;;;;;;;6.68;2.35;;;;;;;9.84;100.00;100660.56;5229175;28;20486;-78
2023/01/06 08:14:18;;;;;;;6.95;2.17;;;;;;;9.86;100.00;100653.53;5235320;28;20567;-78
2023/01/06 08:16:49;;;;;;;6.00;2.10;;;;;;;9.91;100.00;100666.44;5200500;28;20020;-79
2023/01/06 08:19:19;;;;;;;12.13;2.47;;;;;;;9.84;100.00;100667.56;5208755;28;20470;-78
2023/01/06 08:21:49;;;;;;;5.25;1.90;;;;;;;9.85;100.00;100677.09;5220843;28;20092;-75
2023/01/06 08:24:20;;;;;;;5.03;1.80;;;;;;;9.80;100.00;100681.59;5231867;28;20031;-78
2023/01/06 08:26:50;;;;;;;5.82;2.05;;;;;;;9.90;100.00;100667.34;5237085;28;20033;-77
2023/01/06 08:29:20;;;;;;;5.93;2.20;;;;;;;10.04;100.00;100667.81;5230449;28;20025;-78
2023/01/06 08:31:51;;;;;;;7.30;2.35;;;;;;;9.84;100.00;100664.94;5229466;28;20512;-79
2023/01/06 08:34:21;;;;;;;7.32;2.80;;;;;;;9.95;100.00;100673.28;5238293;28;20020;-79
2023/01/06 08:36:52;;;;;;;7.22;2.10;;;;;;;9.93;100.00;100672.47;5212715;28;20111;-79
2023/01/06 08:39:22;;;;;;;6.72;2.38;;;;;;;9.90;100.00;100681.28;5234190;28;20064;-78
2023/01/06 08:41:53;;;;;;;7.57;2.45;;;;;;;9.94;100.00;100682.00;5238287;28;20104;-79
2023/01/06 08:44:23;;;;;;;6.72;2.17;;;;;;;9.93;100.00;100685.53;5235220;28;20016;-77
2023/01/06 08:46:53;;;;;;;6.95;2.42;;;;;;;10.02;100.00;100690.50;5234044;28;20028;-79
2023/01/06 08:49:24;;;;;;;5.68;1.90;;;;;;;10.02;100.00;100677.44;5238509;28;20107;-78
2023/01/06 08:51:54;;;;;;;8.48;2.08;;;;;;;10.09;100.00;100697.22;5226389;28;20033;-79
2023/01/06 08:54:27;;;;;;;4.10;1.75;;;;;;;10.13;100.00;100693.66;5224456;28;20036;-78
2023/01/06 08:56:57;;;;;;;4.80;1.98;;;;;;;10.09;100.00;100692.00;5218037;28;20051;-78
2023/01/06 08:59:27;;;;;;;6.97;2.50;;;;;;;10.12;100.00;100697.13;5218032;28;20028;-78
2023/01/06 09:01:58;;;;;;;5.63;2.17;;;;;;;10.14;100.00;100690.97;5236695;28;20035;-78
2023/01/06 09:04:28;;;;;;;7.10;2.63;;;;;;;10.18;100.00;100683.91;5238797;28;20033;-77
2023/01/06 09:06:58;;;;;;;5.43;2.33;;;;;;;10.25;100.00;100683.66;5234850;28;20025;-78
2023/01/06 09:09:28;;;;;;;6.07;2.00;;;;;;;10.23;100.00;100675.00;5234155;28;20060;-78
2023/01/06 09:11:59;;;;;;;10.23;2.50;;;;;;;10.33;100.00;100671.19;5218039;28;20031;-77
2023/01/06 09:14:29;;;;;;;5.78;1.70;;;;;;;10.29;100.00;100661.75;5234725;28;20045;-79
2023/01/06 09:16:59;;;;;;;6.35;1.83;;;;;;;10.33;100.00;100667.72;5233819;28;20608;-78
2023/01/06 09:19:30;;;;;;;6.15;2.03;;;;;;;10.43;100.00;100671.72;5234156;28;20029;-78
2023/01/06 09:22:00;;;;;;;5.85;1.85;;;;;;;10.41;100.00;100679.63;5227220;28;20040;-79
2023/01/06 09:24:30;;;;;;;4.05;2.03;;;;;;;10.44;100.00;100674.31;5232032;28;20033;-79
2023/01/06 09:27:00;;;;;;;6.68;2.17;;;;;;;10.51;100.00;100680.19;5217402;28;20460;-79
2023/01/06 09:29:31;;;;;;;5.30;1.80;;;;;;;10.61;100.00;100674.59;5236612;28;20519;-78
2023/01/06 09:32:02;;;;;;;5.18;1.55;;;;;;;10.64;100.00;100671.84;5233229;28;20029;-78
2023/01/06 09:34:32;;;;;;;3.63;1.40;;;;;;;10.72;100.00;100666.38;5236653;28;20099;-79
2023/01/06 09:37:02;;;;;;;5.70;1.38;;;;;;;10.66;100.00;100669.22;5217497;28;20028;-79
2023/01/06 09:39:33;;;;;;;4.03;1.45;;;;;;;10.76;100.00;100670.56;5215444;28;20597;-79
2023/01/06 09:42:23;;;;;;;2.17;1.13;;;;;;;10.82;100.00;100663.38;5235583;28;20471;-79
2023/01/06 09:44:56;;;;;;;2.40;0.93;;;;;;;10.90;100.00;100663.97;5227587;28;20067;-79
2023/01/06 09:47:33;;;;;;;4.63;0.73;;;;;;;10.87;100.00;100673.69;5234088;28;20474;-79
2023/01/06 09:50:16;;;;;;;2.00;0.60;;;;;;;10.95;100.00;100669.03;5219943;28;20055;-79
2023/01/06 09:52:54;;;;;;;3.33;0.73;;;;;;;11.02;100.00;100666.13;5227133;28;20020;-79
2023/01/06 09:55:39;;;;;;;3.80;0.73;;;;;;;10.91;100.00;100664.81;5234819;28;20479;-79
2023/01/06 09:58:28;;;;;;;2.10;0.67;;;;;;;10.87;100.00;100661.44;5232818;28;20043;-79
2023/01/06 10:01:04;;;;;;;3.13;0.68;;;;;;;10.82;100.00;100659.94;5215165;28;20028;-79
2023/01/06 10:03:35;;;;;;;2.80;0.73;;;;;;;11.00;100.00;100648.81;5226990;28;20037;-79
2023/01/06 10:06:08;;;;;;;2.25;0.60;;;;;;;10.94;100.00;100649.88;5233713;28;20397;-79
2023/01/06 10:09:03;;;;;;;3.83;0.70;;;;;;;10.93;100.00;100649.91;5230895;28;20051;-78
2023/01/06 10:12:03;;;;;;;3.60;0.80;;;;;;;10.89;100.00;100646.56;5212973;28;20025;-78
2023/01/06 10:14:42;;;;;;;5.50;0.90;;;;;;;10.85;100.00;100647.56;5177149;28;20056;-79
2023/01/06 10:17:41;;;;;;;3.95;0.82;;;;;;;10.80;100.00;100657.34;5235185;28;20068;-76
2023/01/06 10:20:30;;;;;;;2.00;0.70;;;;;;;10.72;100.00;100648.91;5230331;28;20031;-79
2023/01/06 10:23:30;;;;;;;3.38;1.00;;;;;;;10.77;100.00;100651.38;5218082;28;20032;-79
2023/01/06 10:26:11;;;;;;;3.70;0.90;;;;;;;10.69;100.00;100646.41;5234351;28;20062;-78
2023/01/06 10:28:47;;;;;;;4.13;1.00;;;;;;;10.76;100.00;100649.66;5229365;28;20090;-79
2023/01/06 10:31:20;;;;;;;4.25;1.00;;;;;;;10.74;100.00;100648.88;5218355;28;20027;-79
2023/01/06 10:33:53;;;;;;;5.28;1.05;;;;;;;10.85;100.00;100644.97;5228018;28;20204;-78
2023/01/06 10:36:39;;;;;;;4.68;1.05;;;;;;;10.77;100.00;100651.38;5229270;28;20502;-78
2023/01/06 10:39:19;;;;;;;3.03;1.02;;;;;;;10.85;100.00;100641.50;5212985;28;20044;-77
2023/01/06 10:44:49;;;;;;;5.43;1.40;;;;;;;10.78;100.00;100653.94;5228601;28;20067;-78
2023/01/06 10:47:27;;;;;;;2.45;0.93;;;;;;;10.83;100.00;100643.34;5223893;28;20392;-79
2023/01/06 10:49:58;;;;;;;5.10;0.95;;;;;;;10.78;100.00;100632.16;5221073;28;20112;-78
2023/01/06 10:52:30;;;;;;;5.13;1.30;;;;;;;10.75;100.00;100632.28;5226851;28;20037;-78
2023/01/06 10:55:04;;;;;;;4.07;1.42;;;;;;;10.81;100.00;100645.13;5226196;28;20028;-77
2023/01/06 10:57:39;;;;;;;4.93;1.77;;;;;;;10.85;100.00;100646.75;5227530;28;20055;-78
2023/01/06 11:00:12;;;;;;;6.82;1.27;;;;;;;10.70;100.00;100644.66;5226357;28;20031;-78
2023/01/06 11:02:46;;;;;;;5.15;1.70;;;;;;;10.86;100.00;100641.44;5232302;28;20048;-78
2023/01/06 11:05:27;;;;;;;5.40;2.00;;;;;;;10.89;100.00;100638.72;5222199;28;20108;-79
2023/01/06 11:08:01;;;;;;;6.03;2.15;;;;;;;10.92;100.00;100633.41;5224645;28;20064;-78
2023/01/06 11:10:42;;;;;;;5.35;1.85;;;;;;;10.93;100.00;100639.47;5229678;28;20395;-78
2023/01/06 11:13:34;;;;;;;6.65;1.67;;;;;;;11.01;100.00;100642.66;5235472;28;20037;-79
2023/01/06 11:16:16;;;;;;;9.30;2.50;;;;;;;11.10;100.00;100637.97;5229273;28;20040;-79
2023/01/06 11:18:52;;;;;;;4.00;1.50;;;;;;;11.07;100.00;100636.28;5231608;28;20028;-79
2023/01/06 11:21:36;;;;;;;4.63;1.88;;;;;;;11.01;100.00;100637.44;5225082;28;20390;-78
2023/01/06 11:24:17;;;;;;;6.70;1.45;;;;;;;10.96;100.00;100628.88;5227764;28;20029;-78
2023/01/06 11:26:55;;;;;;;4.55;1.60;;;;;;;10.91;100.00;100622.97;5222349;28;20021;-79
2023/01/06 11:29:33;;;;;;;3.45;1.60;;;;;;;10.90;100.00;100631.75;5227351;28;20041;-79
2023/01/06 11:32:19;;;;;;;4.25;1.35;;;;;;;10.89;100.00;100622.19;5209872;28;20128;-79
2023/01/06 11:34:52;;;;;;;;;;;;;;;10.84;100.00;100626.75;5225793;28;20020;-79
2023/01/06 11:37:31;;;;;;;4.40;1.42;;;;;;;10.84;100.00;100631.97;5233420;28;19912;-79
2023/01/06 11:40:24;;;;;;;4.88;1.60;;;;;;;10.80;100.00;100618.13;5227838;28;20017;-79
2023/01/06 11:42:58;;;;;;;6.93;1.60;;;;;;;10.77;100.00;100620.88;5224346;28;20613;-79
2023/01/06 11:45:39;;;;;;;4.60;1.40;;;;;;;10.84;100.00;100631.97;5230607;28;20047;-79
2023/01/06 11:48:17;;;;;;;3.33;1.40;;;;;;;10.83;100.00;100631.09;5228886;28;20441;-79
2023/01/06 11:50:54;;;;;;;3.55;1.30;;;;;;;10.79;100.00;100633.88;5203310;28;20461;-78
2023/01/06 11:53:25;;;;;;;5.43;1.25;;;;;;;10.62;100.00;100631.88;5230502;28;20073;-79
2023/01/06 11:56:05;;;;;;;3.33;0.80;;;;;;;10.75;100.00;100627.03;5209993;28;20429;-79